createdAt,value
2018-08-09T00:00:39.332Z,25.18
2018-08-09T00:03:07.082Z,25.18
2018-08-09T00:05:34.714Z,25.13
2018-08-09T00:08:02.371Z,25.09
2018-08-09T00:10:30.068Z,25.03
2018-08-09T00:12:57.742Z,25.05
2018-08-09T00:15:25.403Z,24.97
2018-08-09T00:17:53.116Z,24.97
2018-08-09T00:20:20.783Z,24.94
2018-08-09T00:22:48.399Z,24.95
2018-08-09T00:25:16.239Z,24.82
2018-08-09T00:27:43.906Z,24.85
2018-08-09T00:30:11.492Z,24.88
2018-08-09T00:32:40.206Z,24.90
2018-08-09T00:35:07.819Z,24.89
2018-08-09T00:37:35.434Z,24.88
2018-08-09T00:40:03.138Z,24.86
2018-08-09T00:42:30.804Z,24.87
2018-08-09T00:44:58.516Z,24.83
2018-08-09T00:47:26.239Z,24.83
2018-08-09T00:49:53.859Z,24.82
2018-08-09T00:52:21.555Z,24.80
2018-08-09T00:54:49.208Z,24.78
2018-08-09T00:57:16.838Z,24.77
2018-08-09T00:59:44.484Z,24.76
2018-08-09T01:02:12.151Z,24.72
2018-08-09T01:04:39.842Z,24.70
2018-08-09T01:07:07.445Z,24.67
2018-08-09T01:09:35.172Z,24.63
2018-08-09T01:12:02.885Z,24.63
2018-08-09T01:14:30.492Z,24.60
2018-08-09T01:16:58.205Z,24.57
2018-08-09T01:19:25.841Z,24.54
2018-08-09T01:21:53.454Z,24.46
2018-08-09T01:24:21.127Z,24.46
2018-08-09T01:26:48.744Z,24.45
2018-08-09T01:29:16.406Z,24.38
2018-08-09T01:31:44.091Z,24.41
2018-08-09T01:34:11.746Z,24.39
2018-08-09T01:36:39.436Z,24.40
2018-08-09T01:39:08.343Z,24.36
2018-08-09T01:41:36.004Z,24.35
2018-08-09T01:44:04.960Z,24.33
2018-08-09T01:46:32.748Z,24.33
2018-08-09T01:49:00.768Z,24.31
2018-08-09T01:51:29.134Z,24.29
2018-08-09T01:53:56.874Z,24.28
2018-08-09T01:56:24.571Z,24.27
2018-08-09T01:58:52.786Z,24.24
2018-08-09T02:01:20.808Z,24.21
2018-08-09T02:03:48.462Z,24.19
2018-08-09T02:06:17.020Z,24.16
2018-08-09T02:08:45.174Z,24.14
2018-08-09T02:11:13.019Z,24.08
2018-08-09T02:13:41.112Z,24.08
2018-08-09T02:16:09.835Z,24.07
2018-08-09T02:18:37.903Z,24.11
2018-08-09T02:21:05.666Z,24.08
2018-08-09T02:23:33.611Z,24.08
2018-08-09T02:26:01.265Z,24.09
2018-08-09T02:28:28.921Z,24.03
2018-08-09T02:30:56.603Z,24.02
2018-08-09T02:33:24.268Z,24.00
2018-08-09T02:35:51.885Z,23.99
2018-08-09T02:38:19.653Z,23.94
2018-08-09T02:40:47.337Z,23.91
2018-08-09T02:43:14.989Z,23.89
2018-08-09T02:45:42.643Z,23.91
2018-08-09T02:48:10.240Z,23.98
2018-08-09T02:50:37.905Z,23.97
2018-08-09T02:53:05.580Z,23.86
2018-08-09T02:55:33.213Z,23.82
2018-08-09T02:58:00.856Z,23.81
2018-08-09T03:00:28.614Z,23.78
2018-08-09T03:02:56.248Z,23.79
2018-08-09T03:05:23.928Z,23.78
2018-08-09T03:07:51.580Z,23.77
2018-08-09T03:10:19.362Z,23.76
2018-08-09T03:12:46.955Z,23.70
2018-08-09T03:15:14.626Z,23.66
2018-08-09T03:17:42.270Z,23.66
2018-08-09T03:20:09.940Z,23.65
2018-08-09T03:22:37.636Z,23.64
2018-08-09T03:25:05.381Z,23.60
2018-08-09T03:27:33.034Z,23.63
2018-08-09T03:30:00.733Z,23.60
2018-08-09T03:32:28.508Z,23.58
2018-08-09T03:34:56.140Z,23.58
2018-08-09T03:37:24.826Z,23.58
2018-08-09T03:39:52.475Z,23.57
2018-08-09T03:42:20.100Z,23.51
2018-08-09T03:44:47.752Z,23.51
2018-08-09T03:47:17.402Z,23.52
2018-08-09T03:49:45.112Z,23.52
2018-08-09T03:52:12.842Z,23.52
2018-08-09T03:54:40.470Z,23.53
2018-08-09T03:57:08.215Z,23.53
2018-08-09T03:59:35.954Z,23.50
2018-08-09T04:02:03.623Z,23.50
2018-08-09T04:04:31.253Z,23.50
2018-08-09T04:06:58.942Z,23.51
2018-08-09T04:09:26.601Z,23.53
2018-08-09T04:11:56.264Z,23.54
2018-08-09T04:14:23.986Z,23.54
2018-08-09T04:16:51.650Z,23.52
2018-08-09T04:19:20.351Z,23.52
2018-08-09T04:21:48.024Z,23.50
2018-08-09T04:24:15.663Z,23.54
2018-08-09T04:26:43.285Z,23.56
2018-08-09T04:29:10.936Z,23.63
2018-08-09T04:31:38.563Z,23.65
2018-08-09T04:34:06.303Z,23.67
2018-08-09T04:36:33.947Z,23.70
2018-08-09T04:39:01.590Z,23.70
2018-08-09T04:41:29.196Z,23.70
2018-08-09T04:43:56.845Z,23.73
2018-08-09T04:46:24.464Z,23.78
2018-08-09T04:48:52.073Z,23.80
2018-08-09T04:51:19.756Z,23.86
2018-08-09T04:53:47.374Z,23.88
2018-08-09T04:56:15.127Z,23.91
2018-08-09T04:58:42.832Z,23.94
2018-08-09T05:01:10.581Z,24.00
2018-08-09T05:03:38.208Z,24.05
2018-08-09T05:06:07.811Z,24.12
2018-08-09T05:08:35.555Z,24.19
2018-08-09T05:11:03.444Z,24.29
2018-08-09T05:13:31.242Z,24.33
2018-08-09T05:15:58.962Z,24.37
2018-08-09T05:18:26.579Z,24.42
2018-08-09T05:20:54.305Z,24.52
2018-08-09T05:23:22.016Z,24.56
2018-08-09T05:25:50.181Z,24.63
2018-08-09T05:28:17.908Z,24.71
2018-08-09T05:30:45.595Z,24.80
2018-08-09T05:33:13.336Z,24.90
2018-08-09T05:35:44.321Z,24.97
2018-08-09T05:38:12.008Z,24.95
2018-08-09T05:40:39.707Z,24.88
2018-08-09T05:43:07.414Z,25.04
2018-08-09T05:45:37.124Z,25.09
2018-08-09T05:48:05.060Z,25.11
2018-08-09T05:50:32.773Z,25.08
2018-08-09T05:53:07.739Z,25.22
2018-08-09T05:55:35.442Z,25.29
2018-08-09T05:58:03.229Z,25.40
2018-08-09T06:00:32.429Z,25.58
2018-08-09T06:03:00.528Z,25.75
2018-08-09T06:05:28.525Z,25.83
2018-08-09T06:07:56.280Z,25.98
2018-08-09T06:10:24.096Z,26.15
2018-08-09T06:12:51.824Z,26.30
2018-08-09T06:15:19.644Z,26.39
2018-08-09T06:17:47.560Z,26.58
2018-08-09T06:20:15.490Z,26.75
2018-08-09T06:22:43.552Z,26.87
2018-08-09T06:25:11.502Z,26.99
2018-08-09T06:27:39.395Z,27.19
2018-08-09T06:30:08.807Z,27.28
2018-08-09T06:32:37.078Z,27.33
2018-08-09T06:35:07.440Z,27.39
2018-08-09T06:37:35.681Z,27.59
2018-08-09T06:40:04.611Z,27.90
2018-08-09T06:42:36.481Z,28.11
2018-08-09T06:45:04.682Z,28.30
2018-08-09T06:47:32.884Z,28.51
2018-08-09T06:50:00.764Z,28.63
2018-08-09T06:52:28.782Z,28.70
2018-08-09T06:54:56.735Z,28.81
2018-08-09T06:57:24.767Z,28.99
2018-08-09T06:59:54.500Z,29.08
2018-08-09T07:02:22.502Z,29.30
2018-08-09T07:04:50.296Z,29.38
2018-08-09T07:07:18.287Z,29.53
2018-08-09T07:09:46.103Z,29.64
2018-08-09T07:12:14.149Z,29.72
2018-08-09T07:14:42.013Z,29.83
2018-08-09T07:17:10.904Z,30.02
2018-08-09T07:19:50.603Z,30.27
2018-08-09T07:22:18.856Z,30.51
2018-08-09T07:24:46.779Z,30.64
2018-08-09T07:27:14.643Z,30.81
2018-08-09T07:29:42.981Z,30.93
2018-08-09T07:32:14.231Z,31.07
2018-08-09T07:34:41.828Z,31.19
2018-08-09T07:37:09.629Z,31.28
2018-08-09T07:39:38.424Z,31.39
2018-08-09T07:42:06.066Z,31.64
2018-08-09T07:44:33.807Z,31.61
2018-08-09T07:47:01.504Z,31.67
2018-08-09T07:49:29.553Z,31.90
2018-08-09T07:51:57.259Z,32.02
2018-08-09T07:54:25.054Z,32.28
2018-08-09T07:56:53.141Z,32.40
2018-08-09T07:59:24.287Z,32.56
2018-08-09T08:01:51.978Z,32.69
2018-08-09T08:04:19.679Z,33.08
2018-08-09T08:06:47.752Z,33.24
2018-08-09T08:09:15.556Z,33.44
2018-08-09T08:11:43.268Z,33.56
2018-08-09T08:14:11.040Z,33.69
2018-08-09T08:16:39.021Z,33.95
2018-08-09T08:19:07.011Z,34.29
2018-08-09T08:21:34.863Z,34.49
2018-08-09T08:24:02.724Z,34.72
2018-08-09T08:26:37.356Z,35.12
2018-08-09T08:29:05.336Z,35.58
2018-08-09T08:31:33.248Z,36.10
2018-08-09T08:34:01.118Z,36.50
2018-08-09T08:36:28.925Z,36.88
2018-08-09T08:38:56.797Z,37.30
2018-08-09T08:41:24.560Z,37.57
2018-08-09T08:43:52.302Z,38.06
2018-08-09T08:46:20.040Z,38.52
2018-08-09T08:48:47.740Z,38.87
2018-08-09T08:51:15.556Z,39.10
2018-08-09T08:53:43.371Z,39.45
2018-08-09T08:56:11.167Z,39.50
2018-08-09T08:58:39.482Z,39.65
2018-08-09T09:01:07.508Z,39.80
2018-08-09T09:03:35.289Z,40.00
2018-08-09T09:06:02.956Z,40.15
2018-08-09T09:08:30.627Z,40.26
2018-08-09T09:10:58.427Z,40.41
2018-08-09T09:13:26.178Z,40.56
2018-08-09T09:15:53.899Z,40.50
2018-08-09T09:18:21.697Z,40.70
2018-08-09T09:20:49.364Z,40.80
2018-08-09T09:23:17.036Z,41.00
2018-08-09T09:25:44.729Z,41.13
2018-08-09T09:28:12.419Z,41.21
2018-08-09T09:30:40.072Z,40.12
2018-08-09T09:33:07.828Z,38.71
2018-08-09T09:35:35.511Z,37.65
2018-08-09T09:38:03.185Z,38.44
2018-08-09T09:40:30.839Z,38.29
2018-08-09T09:42:58.623Z,37.53
2018-08-09T09:45:26.332Z,36.87
2018-08-09T09:47:53.966Z,36.74
2018-08-09T09:50:21.662Z,36.17
2018-08-09T09:52:49.483Z,35.51
2018-08-09T09:55:17.283Z,35.07
2018-08-09T09:57:45.189Z,34.89
2018-08-09T10:00:18.780Z,34.71
2018-08-09T10:02:46.737Z,34.79
2018-08-09T10:05:14.834Z,35.93
2018-08-09T10:07:42.546Z,37.20
2018-08-09T10:10:11.136Z,37.73
2018-08-09T10:12:39.007Z,37.80
2018-08-09T10:15:06.748Z,37.07
2018-08-09T10:17:34.567Z,36.55
2018-08-09T10:20:02.320Z,37.12
2018-08-09T10:22:30.065Z,36.31
2018-08-09T10:24:57.880Z,36.03
2018-08-09T10:27:26.624Z,36.20
2018-08-09T10:29:54.298Z,37.08
2018-08-09T10:32:22.013Z,36.40
2018-08-09T10:34:50.668Z,35.86
2018-08-09T10:37:18.896Z,35.63
2018-08-09T10:42:41.908Z,35.50
2018-08-09T10:45:09.994Z,35.25
2018-08-09T10:47:37.819Z,35.44
2018-08-09T10:50:05.871Z,35.32
2018-08-09T10:52:34.384Z,36.15
2018-08-09T10:55:02.424Z,37.48
2018-08-09T10:57:30.396Z,38.09
2018-08-09T10:59:58.268Z,39.00
2018-08-09T11:02:42.608Z,39.91
2018-08-09T11:05:10.514Z,40.82
2018-08-09T11:07:38.506Z,40.29
2018-08-09T11:10:07.600Z,40.18
2018-08-09T11:12:35.361Z,38.80
2018-08-09T11:15:03.247Z,38.96
2018-08-09T11:17:30.904Z,39.01
2018-08-09T11:19:58.709Z,39.38
2018-08-09T11:22:26.368Z,39.07
2018-08-09T11:24:54.081Z,39.21
2018-08-09T11:27:21.830Z,39.07
2018-08-09T11:29:49.522Z,39.24
2018-08-09T11:32:17.135Z,39.10
2018-08-09T11:34:44.841Z,39.36
2018-08-09T11:37:12.517Z,39.09
2018-08-09T11:39:40.178Z,38.72
2018-08-09T11:42:07.962Z,38.23
2018-08-09T11:44:35.668Z,39.41
2018-08-09T11:47:03.630Z,40.47
2018-08-09T11:49:31.422Z,41.10
2018-08-09T11:51:59.263Z,41.63
2018-08-09T11:54:26.939Z,42.00
2018-08-09T11:56:54.684Z,42.57
2018-08-09T11:59:22.378Z,42.45
2018-08-09T12:01:50.101Z,41.03
2018-08-09T12:04:17.806Z,41.50
2018-08-09T12:06:45.494Z,40.86
2018-08-09T12:09:13.152Z,41.10
2018-08-09T12:11:40.922Z,42.78
2018-08-09T12:14:08.704Z,43.47
2018-08-09T12:16:36.614Z,42.65
2018-08-09T12:19:04.742Z,43.46
2018-08-09T12:21:32.391Z,44.55
2018-08-09T12:24:00.176Z,44.70
2018-08-09T12:26:27.991Z,44.19
2018-08-09T12:28:55.735Z,44.29
2018-08-09T12:31:23.583Z,45.13
2018-08-09T12:33:51.301Z,45.47
2018-08-09T12:36:19.078Z,45.38
2018-08-09T12:38:46.814Z,45.76
2018-08-09T12:41:14.625Z,46.18
2018-08-09T12:43:42.315Z,46.26
2018-08-09T12:46:10.029Z,46.38
2018-08-09T12:48:37.756Z,46.57
2018-08-09T12:51:05.483Z,45.82
2018-08-09T12:53:34.166Z,45.25
2018-08-09T12:56:03.077Z,45.44
2018-08-09T12:58:30.824Z,45.82
2018-08-09T13:00:58.872Z,45.81
2018-08-09T13:03:26.717Z,45.42
2018-08-09T13:05:54.663Z,46.18
2018-08-09T13:08:22.479Z,45.56
2018-08-09T13:10:58.641Z,45.53
2018-08-09T13:13:26.518Z,46.22
2018-08-09T13:15:54.363Z,46.27
2018-08-09T13:18:22.116Z,46.33
2018-08-09T13:20:50.056Z,45.57
2018-08-09T13:23:17.826Z,44.76
2018-08-09T13:25:45.752Z,43.48
2018-08-09T13:28:13.442Z,42.95
2018-08-09T13:30:41.668Z,43.55
2018-08-09T13:33:27.815Z,44.30
2018-08-09T13:35:55.638Z,44.18
2018-08-09T13:38:23.638Z,44.59
2018-08-09T13:40:51.504Z,43.90
2018-08-09T13:43:19.769Z,43.76
2018-08-09T13:45:47.750Z,42.91
2018-08-09T13:48:15.609Z,42.26
2018-08-09T13:50:43.448Z,41.83
2018-08-09T13:53:11.124Z,42.67
2018-08-09T13:55:39.026Z,43.41
2018-08-09T13:58:07.155Z,43.45
2018-08-09T14:00:34.989Z,44.02
2018-08-09T14:03:03.076Z,43.95
2018-08-09T14:05:31.105Z,44.64
2018-08-09T14:07:59.020Z,45.37
2018-08-09T14:10:27.287Z,45.05
2018-08-09T14:12:55.147Z,45.16
2018-08-09T14:15:23.021Z,44.53
2018-08-09T14:17:51.275Z,44.75
2018-08-09T14:20:25.690Z,44.56
2018-08-09T14:22:53.694Z,45.00
2018-08-09T14:25:21.335Z,45.21
2018-08-09T14:27:49.201Z,44.28
2018-08-09T14:30:17.591Z,45.15
2018-08-09T14:32:46.564Z,45.09
2018-08-09T14:35:15.580Z,43.52
2018-08-09T14:37:44.246Z,43.21
2018-08-09T14:40:12.752Z,43.86
2018-08-09T14:42:40.655Z,44.42
2018-08-09T14:45:11.389Z,44.30
2018-08-09T14:47:39.545Z,44.42
2018-08-09T14:50:18.532Z,44.70
2018-08-09T14:55:25.933Z,43.87
2018-08-09T14:57:53.789Z,43.73
2018-08-09T15:00:27.562Z,43.19
2018-08-09T15:02:55.695Z,41.91
2018-08-09T15:05:23.432Z,41.89
2018-08-09T15:07:51.144Z,42.31
2018-08-09T15:10:18.865Z,42.58
2018-08-09T15:12:46.664Z,42.60
2018-08-09T15:15:20.779Z,42.64
2018-08-09T15:17:48.619Z,42.38
2018-08-09T15:20:16.375Z,41.62
2018-08-09T15:22:44.114Z,40.14
2018-08-09T15:25:12.158Z,39.40
2018-08-09T15:27:40.021Z,40.18
2018-08-09T15:30:13.388Z,40.37
2018-08-09T15:32:41.186Z,39.45
2018-08-09T15:35:08.949Z,40.00
2018-08-09T15:37:36.909Z,40.10
2018-08-09T15:40:05.453Z,40.20
2018-08-09T15:42:33.291Z,39.38
2018-08-09T15:45:01.244Z,38.42
2018-08-09T15:47:33.535Z,37.97
2018-08-09T15:50:01.471Z,38.04
2018-08-09T15:52:29.460Z,38.01
2018-08-09T15:54:57.371Z,37.82
2018-08-09T15:57:25.148Z,37.64
2018-08-09T15:59:52.842Z,37.27
2018-08-09T16:02:20.614Z,37.17
2018-08-09T16:04:48.359Z,37.00
2018-08-09T16:07:16.079Z,36.76
2018-08-09T16:09:43.805Z,36.61
2018-08-09T16:12:11.649Z,36.54
2018-08-09T16:14:39.352Z,36.45
2018-08-09T16:17:07.244Z,36.34
2018-08-09T16:19:35.015Z,36.15
2018-08-09T16:22:02.827Z,36.02
2018-08-09T16:24:48.332Z,36.06
2018-08-09T16:27:16.163Z,35.84
2018-08-09T16:29:43.923Z,35.79
2018-08-09T16:32:11.801Z,35.77
2018-08-09T16:34:39.491Z,35.81
2018-08-09T16:37:07.265Z,35.82
2018-08-09T16:39:35.057Z,35.74
2018-08-09T16:42:02.869Z,35.61
2018-08-09T16:44:30.599Z,35.50
2018-08-09T16:46:59.716Z,35.44
2018-08-09T16:49:27.447Z,35.35
2018-08-09T16:51:55.200Z,35.45
2018-08-09T16:54:22.972Z,35.44
2018-08-09T16:56:50.681Z,35.20
2018-08-09T16:59:18.471Z,35.09
2018-08-09T17:01:46.232Z,35.09
2018-08-09T17:04:14.012Z,35.00
2018-08-09T17:06:53.245Z,34.83
2018-08-09T17:09:20.993Z,34.78
2018-08-09T17:11:48.824Z,34.70
2018-08-09T17:14:16.690Z,34.70
2018-08-09T17:16:44.488Z,34.78
2018-08-09T17:19:12.246Z,34.87
2018-08-09T17:21:40.113Z,34.86
2018-08-09T17:24:09.107Z,34.84
2018-08-09T17:26:37.008Z,34.69
2018-08-09T17:29:05.500Z,34.60
2018-08-09T17:31:33.265Z,34.53
2018-08-09T17:34:01.060Z,34.47
2018-08-09T17:36:28.831Z,34.44
2018-08-09T17:38:56.532Z,34.41
2018-08-09T17:41:24.165Z,34.35
2018-08-09T17:43:51.988Z,34.23
2018-08-09T17:46:19.742Z,34.21
2018-08-09T17:48:47.504Z,34.13
2018-08-09T17:51:15.310Z,34.10
2018-08-09T17:53:43.031Z,34.08
2018-08-09T17:56:10.770Z,34.05
2018-08-09T17:58:38.480Z,34.06
2018-08-09T18:01:06.435Z,34.04
2018-08-09T18:03:34.224Z,34.07
2018-08-09T18:06:02.173Z,33.98
2018-08-09T18:08:29.934Z,33.99
2018-08-09T18:10:58.035Z,33.93
2018-08-09T18:13:31.102Z,33.90
2018-08-09T18:15:58.838Z,33.84
2018-08-09T18:18:26.572Z,33.77
2018-08-09T18:20:54.402Z,33.72
2018-08-09T18:23:22.098Z,33.69
2018-08-09T18:25:49.828Z,33.59
2018-08-09T18:28:17.512Z,33.55
2018-08-09T18:30:45.226Z,33.47
2018-08-09T18:33:12.892Z,33.44
2018-08-09T18:35:40.614Z,33.36
2018-08-09T18:38:08.455Z,33.37
2018-08-09T18:40:36.097Z,33.35
2018-08-09T18:43:04.013Z,33.30
2018-08-09T18:45:31.803Z,33.25
2018-08-09T18:47:59.515Z,33.28
2018-08-09T18:50:28.468Z,33.23
2018-08-09T18:53:10.486Z,33.15
2018-08-09T18:55:38.247Z,33.10
2018-08-09T18:58:06.016Z,33.00
2018-08-09T19:00:33.757Z,32.87
2018-08-09T19:03:01.487Z,32.57
2018-08-09T19:05:29.250Z,31.95
2018-08-09T19:07:57.155Z,31.58
2018-08-09T19:10:27.780Z,31.35
2018-08-09T19:12:56.492Z,31.16
2018-08-09T19:15:30.500Z,30.97
2018-08-09T19:18:02.458Z,30.70
2018-08-09T19:20:36.445Z,30.40
2018-08-09T19:23:05.271Z,30.47
2018-08-09T19:25:33.094Z,30.29
2018-08-09T19:28:00.928Z,30.18
2018-08-09T19:30:29.721Z,30.12
2018-08-09T19:32:57.562Z,29.89
2018-08-09T19:35:25.360Z,29.74
2018-08-09T19:37:53.116Z,29.50
2018-08-09T19:40:22.311Z,29.51
2018-08-09T19:42:50.137Z,29.37
2018-08-09T19:45:18.511Z,29.49
2018-08-09T19:47:46.359Z,29.48
2018-08-09T19:50:15.971Z,29.30
2018-08-09T19:52:43.760Z,29.25
2018-08-09T19:55:13.003Z,29.07
2018-08-09T19:57:42.055Z,29.16
2018-08-09T20:00:11.864Z,28.93
2018-08-09T20:02:39.631Z,28.95
2018-08-09T20:05:08.514Z,28.89
2018-08-09T20:07:36.160Z,28.84
2018-08-09T20:10:04.244Z,28.85
2018-08-09T20:12:32.070Z,28.89
2018-08-09T20:14:59.756Z,28.84
2018-08-09T20:17:27.640Z,28.76
2018-08-09T20:19:56.050Z,28.72
2018-08-09T20:22:23.804Z,28.69
2018-08-09T20:24:51.548Z,28.64
2018-08-09T20:27:19.383Z,28.60
2018-08-09T20:29:47.126Z,28.55
2018-08-09T20:32:20.737Z,28.42
2018-08-09T20:34:48.604Z,28.58
2018-08-09T20:37:16.280Z,28.62
2018-08-09T20:39:44.083Z,28.71
2018-08-09T20:42:11.870Z,28.73
2018-08-09T20:45:06.321Z,28.61
2018-08-09T20:47:34.280Z,28.73
2018-08-09T20:50:04.474Z,28.74
2018-08-09T20:52:32.284Z,28.73
2018-08-09T20:55:08.710Z,28.69
2018-08-09T20:57:36.973Z,28.63
2018-08-09T21:00:11.941Z,28.42
2018-08-09T21:02:40.795Z,28.29
2018-08-09T21:05:21.827Z,28.26
2018-08-09T21:07:50.298Z,28.23
2018-08-09T21:10:21.711Z,28.23
2018-08-09T21:12:51.329Z,27.94
2018-08-09T21:15:21.679Z,27.88
2018-08-09T21:17:50.075Z,27.67
2018-08-09T21:20:17.837Z,27.58
2018-08-09T21:22:53.043Z,27.28
2018-08-09T21:25:23.329Z,27.20
2018-08-09T21:27:54.868Z,27.22
2018-08-09T21:30:25.612Z,27.19
2018-08-09T21:32:56.200Z,27.26
2018-08-09T21:35:26.419Z,27.05
2018-08-09T21:37:58.428Z,26.90
2018-08-09T21:40:28.368Z,26.79
2018-08-09T21:42:57.242Z,26.84
2018-08-09T21:45:26.063Z,26.86
2018-08-09T21:47:56.439Z,26.80
2018-08-09T21:50:25.788Z,26.82
2018-08-09T21:52:58.284Z,26.75
2018-08-09T21:55:33.181Z,26.77
2018-08-09T21:58:01.773Z,26.65
2018-08-09T22:00:49.585Z,26.73
2018-08-09T22:06:15.871Z,26.52
2018-08-09T22:08:49.719Z,26.44
2018-08-09T22:11:27.216Z,26.40
2018-08-09T22:14:01.642Z,26.46
2018-08-09T22:16:36.404Z,26.42
2018-08-09T22:19:10.531Z,26.19
2018-08-09T22:21:45.625Z,26.12
2018-08-09T22:24:17.122Z,26.16
2018-08-09T22:26:47.795Z,26.12
2018-08-09T22:29:17.538Z,25.98
2018-08-09T22:31:47.599Z,26.04
2018-08-09T22:34:16.646Z,25.98
2018-08-09T22:36:50.718Z,26.05
2018-08-09T22:39:20.293Z,25.95
2018-08-09T22:41:52.094Z,25.93
2018-08-09T22:44:21.967Z,25.74
2018-08-09T22:46:51.132Z,25.68
2018-08-09T22:49:20.158Z,25.74
2018-08-09T22:51:49.940Z,25.67
2018-08-09T22:54:22.891Z,25.64
2018-08-09T22:56:52.382Z,25.64
2018-08-09T22:59:22.036Z,25.64
2018-08-09T23:01:50.721Z,25.64
2018-08-09T23:04:19.417Z,25.58
2018-08-09T23:06:48.315Z,25.51
2018-08-09T23:09:17.275Z,25.49
2018-08-09T23:11:45.060Z,25.58
2018-08-09T23:14:12.873Z,25.60
2018-08-09T23:16:40.765Z,25.68
2018-08-09T23:19:08.626Z,25.59
2018-08-09T23:21:39.652Z,25.52
2018-08-09T23:24:07.390Z,25.49
2018-08-09T23:26:35.152Z,25.57
2018-08-09T23:29:02.960Z,25.57
2018-08-09T23:31:30.770Z,25.53
2018-08-09T23:34:02.351Z,25.55
2018-08-09T23:36:30.118Z,25.53
2018-08-09T23:38:57.932Z,25.55
2018-08-09T23:41:25.768Z,25.50
2018-08-09T23:43:53.558Z,25.46
2018-08-09T23:46:21.282Z,25.49
2018-08-09T23:48:49.063Z,25.44
2018-08-09T23:51:16.830Z,25.26
2018-08-09T23:53:44.484Z,25.22
2018-08-09T23:56:12.289Z,25.17
2018-08-09T23:58:40.073Z,25.14
